Falun, Kansas
Current Conditions -  °F | °C
As of 10:53 AM on Friday 28 Nov 2014 (Local Time) from KSLN Reporting Station
Clear Clear  
Wind Chill: 53°   Ceiling: Unl
Heat Index: 53°   Visibility: 10mi
Dew Point: 31°   Wind: 10mph
Humidity: 43%   Direction: 210°SSW
Pressure: 29.9"   Gusts: NA
Location:  38.67°N, 97.76°W
Report Text: KSLN 281653Z 21009KT 10SM CLR 12/M01 A2990 RMK AO2 SLP127 T01171006
Loading
Personal Weather Stations






























Interactive Weather Map New forecast layout! Learn more

10-Day Weather Forecast

Advertisements
Track Severe Weather on mobile